Time;durP1;ratioP1;P1;durP2;ratioP2;P2;SDS_P1;SDS_P2;PMS_P1;PMS_P2;Temp;Humidity;BMP_temperature;BMP_pressure;BME280_temperature;BME280_humidity;BME280_pressure;Samples;Min_cycle;Max_cycle;Signal;HPM_P1;HPM_P2
2021/04/30 00:00:42;;;;;;;26.77;12.35;;;7.90;99.90;;;;;;5066855;28;20033;-72
2021/04/30 00:03:07;;;;;;;23.92;11.60;;;7.90;99.90;;;;;;5066626;28;20047;-71
2021/04/30 00:05:33;;;;;;;37.22;14.45;;;8.00;99.90;;;;;;5064856;28;20434;-71
2021/04/30 00:07:59;;;;;;;30.05;12.15;;;8.00;99.90;;;;;;5066530;28;20032;-70
2021/04/30 00:10:26;;;;;;;28.13;11.68;;;8.00;99.90;;;;;;5065313;28;20128;-71
2021/04/30 00:12:52;;;;;;;27.58;12.35;;;8.00;99.90;;;;;;5066152;28;20037;-70
2021/04/30 00:15:19;;;;;;;29.50;12.93;;;8.00;99.90;;;;;;5066558;28;20088;-71
2021/04/30 00:17:44;;;;;;;27.27;13.77;;;8.00;99.90;;;;;;5066659;28;20105;-72
2021/04/30 00:20:12;;;;;;;25.83;13.43;;;8.00;99.90;;;;;;5065309;28;20029;-73
2021/04/30 00:22:37;;;;;;;28.73;11.93;;;8.00;99.90;;;;;;5064856;28;20056;-70
2021/04/30 00:25:04;;;;;;;24.33;12.25;;;8.00;99.90;;;;;;5066011;28;20470;-70
2021/04/30 00:27:29;;;;;;;25.30;12.32;;;8.00;99.90;;;;;;5066065;28;20082;-70
2021/04/30 00:29:55;;;;;;;25.20;12.00;;;8.00;99.90;;;;;;5064972;28;20029;-70
2021/04/30 00:32:20;;;;;;;27.23;13.50;;;8.00;99.90;;;;;;5064561;28;20037;-71
2021/04/30 00:34:47;;;;;;;21.70;11.48;;;8.00;99.90;;;;;;5064848;28;20424;-72
2021/04/30 00:37:13;;;;;;;35.40;13.07;;;8.00;99.90;;;;;;5065005;28;20060;-71
2021/04/30 00:39:38;;;;;;;25.48;10.07;;;8.00;99.90;;;;;;5065562;28;20039;-71
2021/04/30 00:42:05;;;;;;;25.05;12.18;;;7.90;99.90;;;;;;5065605;28;20025;-73
2021/04/30 00:44:31;;;;;;;29.50;11.82;;;7.90;99.90;;;;;;5066107;28;20025;-71
2021/04/30 00:46:57;;;;;;;24.35;10.23;;;7.90;99.90;;;;;;5066272;28;20124;-72
2021/04/30 00:49:22;;;;;;;21.73;11.60;;;7.90;99.90;;;;;;5064815;28;20021;-71
2021/04/30 00:51:48;;;;;;;20.13;9.13;;;7.90;99.90;;;;;;5064478;28;20033;-72
2021/04/30 00:54:14;;;;;;;17.98;9.15;;;7.90;99.90;;;;;;5065621;28;20044;-72
2021/04/30 00:56:40;;;;;;;25.95;12.00;;;7.90;99.90;;;;;;5065818;28;20047;-73
2021/04/30 00:59:06;;;;;;;23.40;10.57;;;7.90;99.90;;;;;;5064416;28;20135;-75
2021/04/30 01:01:32;;;;;;;24.85;10.20;;;7.90;99.90;;;;;;5063822;28;20095;-73
2021/04/30 01:03:58;;;;;;;20.15;10.13;;;8.00;99.90;;;;;;5065620;28;20413;-75
2021/04/30 01:06:23;;;;;;;29.05;10.57;;;8.00;99.90;;;;;;5065624;28;20056;-74
2021/04/30 01:08:49;;;;;;;23.08;10.68;;;8.00;99.90;;;;;;5065440;28;20035;-76
2021/04/30 01:11:15;;;;;;;24.08;12.23;;;8.00;99.90;;;;;;5064307;28;20021;-71
2021/04/30 01:13:41;;;;;;;24.95;10.80;;;7.90;99.90;;;;;;5063920;28;20128;-74
2021/04/30 01:16:07;;;;;;;19.27;10.93;;;7.90;99.90;;;;;;5064983;28;20029;-74
2021/04/30 01:18:43;;;;;;;21.20;10.55;;;7.90;99.90;;;;;;5065412;28;20048;-73
2021/04/30 01:21:09;;;;;;;23.45;10.98;;;7.90;99.90;;;;;;5065021;28;20040;-73
2021/04/30 01:23:44;;;;;;;24.50;11.95;;;8.00;99.90;;;;;;5064959;28;20045;-73
2021/04/30 01:26:10;;;;;;;21.95;10.00;;;7.90;99.90;;;;;;5063994;28;20092;-73
2021/04/30 01:28:35;;;;;;;21.75;10.70;;;7.90;99.90;;;;;;5065462;28;20044;-74
2021/04/30 01:31:01;;;;;;;29.73;11.73;;;8.00;99.90;;;;;;5064558;28;20158;-74
2021/04/30 01:33:27;;;;;;;25.15;11.50;;;8.00;99.90;;;;;;5063454;28;20477;-73
2021/04/30 01:35:53;;;;;;;19.58;10.65;;;8.00;99.90;;;;;;5064724;28;20025;-74
2021/04/30 01:38:18;;;;;;;26.15;11.93;;;8.00;99.90;;;;;;5064968;28;20051;-74
2021/04/30 01:40:44;;;;;;;26.95;13.77;;;7.90;99.90;;;;;;5065017;28;20037;-73
2021/04/30 01:43:14;;;;;;;29.35;13.38;;;7.90;99.90;;;;;;5064830;28;20032;-74
2021/04/30 01:45:43;;;;;;;24.10;12.52;;;7.90;99.90;;;;;;5063507;28;20460;-75
2021/04/30 01:48:14;;;;;;;23.27;11.25;;;7.90;99.90;;;;;;5064779;28;20033;-73
2021/04/30 01:50:41;;;;;;;26.00;12.35;;;7.90;99.90;;;;;;5064578;28;20080;-73
2021/04/30 01:53:08;;;;;;;27.92;12.15;;;7.90;99.90;;;;;;5064643;28;20136;-74
2021/04/30 01:55:33;;;;;;;30.50;13.25;;;7.90;99.90;;;;;;5064588;28;20028;-72
2021/04/30 01:57:59;;;;;;;28.05;11.95;;;7.90;99.90;;;;;;5063039;28;20033;-73
2021/04/30 02:00:27;;;;;;;30.20;12.30;;;7.90;99.90;;;;;;5064732;28;20450;-74
2021/04/30 02:02:55;;;;;;;29.80;11.30;;;7.80;99.90;;;;;;5064596;28;20033;-73
2021/04/30 02:05:23;;;;;;;39.83;14.23;;;7.80;99.90;;;;;;5064439;28;20040;-74
2021/04/30 02:07:49;;;;;;;32.08;12.88;;;7.80;99.90;;;;;;5063222;28;20477;-75
2021/04/30 02:10:21;;;;;;;28.67;12.63;;;7.80;99.90;;;;;;5064752;28;20037;-75
2021/04/30 02:12:48;;;;;;;27.83;12.57;;;7.70;99.90;;;;;;5064324;28;20086;-76
2021/04/30 02:15:17;;;;;;;29.10;13.32;;;7.60;99.90;;;;;;5064350;28;20025;-74
2021/04/30 02:17:42;;;;;;;26.35;12.68;;;7.60;99.90;;;;;;5064553;28;20021;-76
2021/04/30 02:20:09;;;;;;;28.90;14.15;;;7.60;99.90;;;;;;5064146;28;20085;-77
2021/04/30 02:22:36;;;;;;;34.05;14.77;;;7.50;99.90;;;;;;5064189;28;20029;-75
2021/04/30 02:25:04;;;;;;;35.08;15.05;;;7.40;99.90;;;;;;5062881;28;20066;-74
2021/04/30 02:27:29;;;;;;;30.83;14.80;;;7.50;99.90;;;;;;5062757;28;20025;-74
2021/04/30 02:29:55;;;;;;;30.45;14.07;;;7.40;99.90;;;;;;5064516;28;20036;-75
2021/04/30 02:32:22;;;;;;;34.85;14.98;;;7.40;99.90;;;;;;5064182;28;20052;-75
2021/04/30 02:34:48;;;;;;;36.75;14.68;;;7.40;99.90;;;;;;5062928;28;20075;-74
2021/04/30 02:37:14;;;;;;;29.85;13.05;;;7.30;99.90;;;;;;5064445;28;20256;-74
2021/04/30 02:39:40;;;;;;;33.22;15.15;;;7.30;99.90;;;;;;5062676;28;20044;-75
2021/04/30 02:42:05;;;;;;;33.10;14.48;;;7.30;99.90;;;;;;5064165;28;20029;-73
2021/04/30 02:44:31;;;;;;;32.63;14.55;;;7.30;99.90;;;;;;5067255;28;20029;-73
2021/04/30 02:46:57;;;;;;;36.42;14.80;;;7.20;99.90;;;;;;5066648;28;20040;-74
2021/04/30 02:52:08;;;;;;;26.52;12.30;;;7.20;99.90;;;;;;5068173;28;20044;-72
2021/04/30 02:54:34;;;;;;;33.97;14.43;;;7.20;99.90;;;;;;5067656;28;20037;-73
2021/04/30 02:57:00;;;;;;;35.13;14.05;;;7.10;99.90;;;;;;5068144;28;20025;-74
2021/04/30 02:59:27;;;;;;;34.30;14.85;;;7.20;99.90;;;;;;5067595;28;20033;-74
2021/04/30 03:01:53;;;;;;;32.67;14.00;;;7.00;99.90;;;;;;5066301;28;20025;-74
2021/04/30 03:04:19;;;;;;;32.28;14.38;;;7.10;99.90;;;;;;5068104;28;20039;-73
2021/04/30 03:06:45;;;;;;;30.25;14.02;;;7.00;99.90;;;;;;5067792;28;20053;-73
2021/04/30 03:09:10;;;;;;;34.47;15.15;;;7.00;99.90;;;;;;5067588;28;20662;-71
2021/04/30 03:11:36;;;;;;;40.00;15.00;;;7.00;99.90;;;;;;5067528;28;20025;-73
2021/04/30 03:14:02;;;;;;;31.92;15.07;;;7.00;99.90;;;;;;5067483;28;20033;-74
2021/04/30 03:16:27;;;;;;;32.40;13.95;;;6.90;99.90;;;;;;5067545;28;20087;-74
2021/04/30 03:18:53;;;;;;;31.98;14.63;;;7.00;99.90;;;;;;5067658;28;20060;-72
2021/04/30 03:21:19;;;;;;;44.38;16.13;;;6.80;99.90;;;;;;5066067;28;20029;-73
2021/04/30 03:23:44;;;;;;;36.50;15.32;;;6.80;99.90;;;;;;5067323;28;20060;-71
2021/04/30 03:26:10;;;;;;;37.65;15.85;;;6.80;99.90;;;;;;5067313;28;20033;-74
2021/04/30 03:28:35;;;;;;;45.92;15.70;;;6.70;99.90;;;;;;5065707;28;20227;-73
2021/04/30 03:31:01;;;;;;;28.33;13.63;;;6.80;99.90;;;;;;5067184;28;20049;-73
2021/04/30 03:33:26;;;;;;;39.72;15.43;;;6.80;99.90;;;;;;5065885;28;20037;-73
2021/04/30 03:35:52;;;;;;;34.30;14.48;;;6.70;99.90;;;;;;5066913;28;20092;-72
2021/04/30 03:38:17;;;;;;;32.80;14.50;;;6.70;99.90;;;;;;5067353;28;20028;-75
2021/04/30 03:40:43;;;;;;;36.25;15.98;;;6.70;99.90;;;;;;5067384;28;20030;-74
2021/04/30 03:43:09;;;;;;;31.35;12.85;;;6.70;99.90;;;;;;5066709;28;20033;-73
2021/04/30 03:45:34;;;;;;;34.50;16.38;;;6.70;99.90;;;;;;5065686;28;20033;-74
2021/04/30 03:48:00;;;;;;;27.17;13.48;;;6.70;99.90;;;;;;5065753;28;20033;-74
2021/04/30 03:50:25;;;;;;;36.67;14.70;;;6.70;99.90;;;;;;5065393;28;20089;-73
2021/04/30 03:52:51;;;;;;;38.08;14.13;;;6.60;99.90;;;;;;5066829;28;20072;-75
2021/04/30 03:55:16;;;;;;;35.03;15.77;;;6.60;99.90;;;;;;5065494;28;20035;-75
2021/04/30 03:57:42;;;;;;;35.50;15.52;;;6.70;99.90;;;;;;5066552;28;20029;-75
2021/04/30 04:00:08;;;;;;;34.67;15.23;;;6.70;99.90;;;;;;5065409;28;20033;-73
2021/04/30 04:02:34;;;;;;;33.65;14.38;;;6.60;99.90;;;;;;5066671;28;20025;-73
2021/04/30 04:04:59;;;;;;;36.95;15.50;;;6.60;99.90;;;;;;5066450;28;20036;-74
2021/04/30 04:07:25;;;;;;;34.20;15.07;;;6.60;99.90;;;;;;5066523;28;20037;-73
2021/04/30 04:09:51;;;;;;;34.10;14.63;;;6.60;99.90;;;;;;5066469;28;20037;-72
2021/04/30 04:12:16;;;;;;;33.45;15.35;;;6.60;99.90;;;;;;5066222;28;20041;-74
2021/04/30 04:14:43;;;;;;;36.92;15.20;;;6.60;99.90;;;;;;5066626;28;20021;-72
2021/04/30 04:17:08;;;;;;;31.88;14.30;;;6.50;99.90;;;;;;5066513;28;20481;-74
2021/04/30 04:19:34;;;;;;;43.47;16.70;;;6.50;99.90;;;;;;5066058;28;20051;-72
2021/04/30 04:21:59;;;;;;;36.35;14.27;;;6.50;99.90;;;;;;5066349;28;20048;-73
2021/04/30 04:24:25;;;;;;;32.60;13.77;;;6.50;99.90;;;;;;5066280;28;20049;-74
2021/04/30 04:26:51;;;;;;;33.58;13.93;;;6.60;99.90;;;;;;5064548;28;20101;-72
2021/04/30 04:29:16;;;;;;;29.67;14.05;;;6.50;99.90;;;;;;5065146;28;20033;-73
2021/04/30 04:31:42;;;;;;;33.40;14.40;;;6.50;99.90;;;;;;5064691;28;20043;-73
2021/04/30 04:34:07;;;;;;;34.80;14.20;;;6.60;99.90;;;;;;5064698;28;20071;-73
2021/04/30 04:36:33;;;;;;;33.75;14.73;;;6.50;99.90;;;;;;5066021;28;20092;-73
2021/04/30 04:38:59;;;;;;;42.45;16.85;;;6.70;99.90;;;;;;5065723;28;20021;-72
2021/04/30 04:41:25;;;;;;;37.47;14.23;;;6.70;99.90;;;;;;5065908;28;20053;-72
2021/04/30 04:43:51;;;;;;;28.77;13.88;;;6.70;99.90;;;;;;5066250;28;20116;-74
2021/04/30 04:46:16;;;;;;;40.60;16.45;;;6.70;99.90;;;;;;5065637;28;20033;-73
2021/04/30 04:48:42;;;;;;;33.50;15.05;;;6.70;99.90;;;;;;5064793;28;20044;-72
2021/04/30 04:51:07;;;;;;;31.50;13.98;;;6.80;99.90;;;;;;5064456;28;20021;-72
2021/04/30 04:53:33;;;;;;;36.15;16.38;;;6.80;99.90;;;;;;5065225;28;20033;-72
2021/04/30 04:55:59;;;;;;;35.05;15.68;;;6.90;99.90;;;;;;5065675;28;20052;-72
2021/04/30 04:58:24;;;;;;;32.80;16.35;;;6.90;99.90;;;;;;5065755;28;20040;-71
2021/04/30 05:00:50;;;;;;;30.60;15.18;;;7.00;99.90;;;;;;5065562;28;20033;-75
2021/04/30 05:03:16;;;;;;;42.20;15.75;;;7.10;99.90;;;;;;5065783;28;20027;-75
2021/04/30 05:05:41;;;;;;;29.45;14.18;;;7.10;99.90;;;;;;5065012;28;20041;-73
2021/04/30 05:08:07;;;;;;;31.55;13.52;;;7.10;99.90;;;;;;5065193;28;20029;-74
2021/04/30 05:10:32;;;;;;;37.28;14.70;;;7.20;99.90;;;;;;5065191;28;20199;-73
2021/04/30 05:12:59;;;;;;;36.40;15.30;;;7.30;99.90;;;;;;5065030;28;20083;-73
2021/04/30 05:15:24;;;;;;;26.77;12.88;;;7.30;99.90;;;;;;5065202;28;20024;-75
2021/04/30 05:17:50;;;;;;;28.77;13.48;;;7.40;99.90;;;;;;5065392;28;20063;-73
2021/04/30 05:20:16;;;;;;;34.08;13.90;;;7.50;99.90;;;;;;5063445;28;20029;-74
2021/04/30 05:22:43;;;;;;;32.15;15.20;;;7.50;99.90;;;;;;5065138;28;20412;-74
2021/04/30 05:25:11;;;;;;;35.00;15.30;;;7.60;99.90;;;;;;5064214;28;20075;-74
2021/04/30 05:27:39;;;;;;;36.80;13.82;;;7.70;99.90;;;;;;5063382;28;20044;-73
2021/04/30 05:30:06;;;;;;;29.25;14.05;;;7.70;99.90;;;;;;5064633;28;20657;-74
2021/04/30 05:32:32;;;;;;;32.60;13.93;;;7.80;99.90;;;;;;5064679;28;20045;-73
2021/04/30 05:34:59;;;;;;;27.77;14.20;;;7.90;99.90;;;;;;5064774;28;20031;-73
2021/04/30 05:37:25;;;;;;;27.95;13.48;;;8.00;99.90;;;;;;5064802;28;20024;-74
2021/04/30 05:39:50;;;;;;;27.48;13.38;;;8.10;99.90;;;;;;5064817;28;20077;-74
2021/04/30 05:42:16;;;;;;;30.70;12.45;;;8.20;99.90;;;;;;5064955;28;20397;-74
2021/04/30 05:44:42;;;;;;;29.48;12.73;;;8.30;99.90;;;;;;5063817;28;20033;-73
2021/04/30 05:47:08;;;;;;;26.85;12.98;;;8.40;99.90;;;;;;5065088;28;20037;-73
2021/04/30 05:49:33;;;;;;;29.83;12.80;;;8.50;99.90;;;;;;5065099;28;20021;-74
2021/04/30 05:51:59;;;;;;;24.00;11.55;;;8.60;99.90;;;;;;5065439;28;20032;-73
2021/04/30 05:54:25;;;;;;;25.80;11.52;;;8.70;99.90;;;;;;5063122;28;20044;-75
2021/04/30 05:56:50;;;;;;;22.65;11.05;;;8.70;99.90;;;;;;5064591;28;20208;-73
2021/04/30 05:59:16;;;;;;;21.55;9.80;;;8.80;99.90;;;;;;5051968;28;20036;-75
2021/04/30 06:01:42;;;;;;;25.15;10.15;;;8.80;99.90;;;;;;5055657;28;20033;-75
2021/04/30 06:04:07;;;;;;;21.05;9.63;;;8.80;99.90;;;;;;5044728;28;20085;-73
2021/04/30 06:06:33;;;;;;;21.50;11.15;;;8.90;99.90;;;;;;5043605;28;20030;-75
2021/04/30 06:08:58;;;;;;;20.33;11.05;;;8.90;99.90;;;;;;5043788;28;20025;-75
2021/04/30 06:11:24;;;;;;;21.33;10.30;;;8.90;99.90;;;;;;5042747;28;20043;-74
2021/04/30 06:13:49;;;;;;;25.17;11.68;;;9.00;99.90;;;;;;5044323;28;20065;-74
2021/04/30 06:16:15;;;;;;;20.83;10.23;;;9.00;99.90;;;;;;5042474;28;20036;-74
2021/04/30 06:18:41;;;;;;;22.95;10.55;;;9.00;99.90;;;;;;5046780;28;20045;-73
2021/04/30 06:21:06;;;;;;;19.25;9.20;;;9.00;99.90;;;;;;5048919;28;20025;-76
2021/04/30 06:23:32;;;;;;;18.27;9.73;;;9.00;99.90;;;;;;5046767;28;20068;-77
2021/04/30 06:25:57;;;;;;;16.58;8.90;;;9.00;99.90;;;;;;5048523;28;20022;-75
2021/04/30 06:28:23;;;;;;;23.85;9.35;;;9.00;99.90;;;;;;5047142;28;20022;-76
2021/04/30 06:30:50;;;;;;;22.80;11.00;;;9.10;99.90;;;;;;5048300;28;20029;-75
2021/04/30 06:33:16;;;;;;;19.65;9.70;;;9.10;99.90;;;;;;5047274;28;20041;-76
2021/04/30 06:35:42;;;;;;;21.75;10.43;;;9.10;99.90;;;;;;5048552;28;20041;-76
2021/04/30 06:38:07;;;;;;;21.95;9.48;;;9.10;99.90;;;;;;5047013;28;20022;-77
2021/04/30 06:40:33;;;;;;;17.58;9.05;;;9.20;99.90;;;;;;5047931;28;20021;-76
2021/04/30 06:42:59;;;;;;;18.73;8.75;;;9.20;99.90;;;;;;5048057;28;20029;-77
2021/04/30 06:45:25;;;;;;;19.35;9.75;;;9.20;99.90;;;;;;5048315;28;20029;-76
2021/04/30 06:47:50;;;;;;;19.13;9.43;;;9.30;99.90;;;;;;5046824;28;20025;-77
2021/04/30 06:50:17;;;;;;;18.27;8.77;;;9.30;99.90;;;;;;5047156;28;20030;-77
2021/04/30 06:52:43;;;;;;;19.80;9.82;;;9.40;99.90;;;;;;5047101;28;20029;-78
2021/04/30 06:55:09;;;;;;;16.13;8.93;;;9.40;99.90;;;;;;5046909;28;20033;-79
2021/04/30 06:57:35;;;;;;;19.70;9.38;;;9.50;99.90;;;;;;5046226;28;20037;-78
2021/04/30 07:00:00;;;;;;;23.90;9.20;;;9.70;99.90;;;;;;5048579;28;20044;-79
2021/04/30 07:02:26;;;;;;;16.02;9.10;;;9.80;99.90;;;;;;5046915;28;20030;-81
2021/04/30 07:04:55;;;;;;;16.38;8.55;;;10.00;99.90;;;;;;5048132;28;20029;-78
2021/04/30 07:07:20;;;;;;;24.08;9.73;;;10.10;99.90;;;;;;5047074;28;20037;-82
2021/04/30 07:09:47;;;;;;;17.25;8.90;;;10.20;99.90;;;;;;5047750;28;20025;-79
2021/04/30 07:12:13;;;;;;;19.27;9.27;;;10.30;99.90;;;;;;5046440;28;20034;-81
2021/04/30 07:14:39;;;;;;;17.65;8.82;;;10.40;99.90;;;;;;5047167;28;20022;-81
2021/04/30 07:17:04;;;;;;;15.02;8.05;;;10.50;99.90;;;;;;5048165;28;20033;-82
2021/04/30 07:19:30;;;;;;;15.20;7.78;;;10.60;99.90;;;;;;5046818;28;20089;-81
2021/04/30 07:21:56;;;;;;;19.45;8.65;;;10.70;99.90;;;;;;5046783;28;20490;-81
2021/04/30 07:24:22;;;;;;;15.20;7.63;;;10.70;99.90;;;;;;5047881;28;20049;-83
2021/04/30 07:26:48;;;;;;;19.67;9.30;;;10.90;99.90;;;;;;5046568;28;20026;-83
2021/04/30 07:29:13;;;;;;;16.38;8.27;;;11.00;99.90;;;;;;5046057;28;20064;-80
2021/04/30 07:31:39;;;;;;;15.88;8.68;;;11.00;99.90;;;;;;5047014;28;20053;-84
2021/04/30 07:34:05;;;;;;;14.02;7.60;;;11.00;99.90;;;;;;5046012;28;20038;-83
2021/04/30 07:36:30;;;;;;;13.02;6.63;;;11.10;99.90;;;;;;5046689;28;20017;-82
2021/04/30 07:38:57;;;;;;;19.38;7.65;;;11.20;99.90;;;;;;5045743;28;20525;-84
2021/04/30 07:41:23;;;;;;;18.75;7.03;;;11.20;99.90;;;;;;5046156;28;20029;-83
2021/04/30 07:43:49;;;;;;;15.85;8.52;;;11.20;99.90;;;;;;5046074;28;20030;-85
2021/04/30 07:46:14;;;;;;;13.32;7.20;;;11.20;99.90;;;;;;5046005;28;20026;-84
2021/04/30 07:48:40;;;;;;;18.80;8.20;;;11.20;99.90;;;;;;5045924;28;20048;-82
2021/04/30 07:51:06;;;;;;;16.63;8.32;;;11.20;99.90;;;;;;5047519;28;20075;-83
2021/04/30 07:53:33;;;;;;;16.83;7.72;;;11.30;99.90;;;;;;5054473;28;20123;-83
2021/04/30 07:55:59;;;;;;;14.48;7.07;;;11.30;99.90;;;;;;5067966;28;20029;-84
2021/04/30 07:58:27;;;;;;;19.85;7.53;;;11.40;99.90;;;;;;5063074;28;20064;-83
2021/04/30 08:00:57;;;;;;;16.95;8.25;;;11.60;99.90;;;;;;5066283;28;20051;-84
2021/04/30 08:03:23;;;;;;;10.95;7.28;;;11.70;99.90;;;;;;5049942;28;20032;-83
2021/04/30 08:05:53;;;;;;;17.02;7.80;;;11.70;99.90;;;;;;5045684;28;20030;-81
2021/04/30 08:08:20;;;;;;;14.15;7.75;;;12.00;99.90;;;;;;5061496;28;20029;-78
2021/04/30 08:10:45;;;;;;;12.60;7.18;;;11.90;99.90;;;;;;5062810;28;20100;-80
2021/04/30 08:13:11;;;;;;;13.63;7.97;;;12.00;99.90;;;;;;5056047;28;20045;-77
2021/04/30 08:15:37;;;;;;;12.98;7.85;;;12.20;99.90;;;;;;5065285;28;20029;-76
2021/04/30 08:18:03;;;;;;;13.18;6.65;;;12.50;99.90;;;;;;5064039;28;20029;-77
2021/04/30 08:20:29;;;;;;;17.55;7.78;;;12.60;99.90;;;;;;5047658;28;20109;-78
2021/04/30 08:22:54;;;;;;;14.70;6.75;;;12.70;99.90;;;;;;5053952;28;20104;-76
2021/04/30 08:25:20;;;;;;;16.70;7.25;;;12.70;99.90;;;;;;5056910;28;20082;-76
2021/04/30 08:27:46;;;;;;;15.63;6.72;;;12.70;99.90;;;;;;5066188;28;20032;-77
2021/04/30 08:30:12;;;;;;;13.65;6.80;;;12.70;99.90;;;;;;5066740;28;20052;-76
2021/04/30 08:32:38;;;;;;;12.20;6.70;;;12.70;99.90;;;;;;5061589;28;20041;-78
2021/04/30 08:35:05;;;;;;;10.57;6.57;;;12.40;99.90;;;;;;5048941;28;20125;-76
2021/04/30 08:37:30;;;;;;;10.55;5.78;;;12.20;99.90;;;;;;5045970;28;20037;-76
2021/04/30 08:39:57;;;;;;;14.40;6.63;;;12.10;99.90;;;;;;5044601;28;20030;-74
2021/04/30 08:42:23;;;;;;;14.23;6.93;;;12.10;99.90;;;;;;5043480;28;20025;-74
2021/04/30 08:44:49;;;;;;;11.68;6.47;;;12.20;99.90;;;;;;5046423;28;20053;-76
2021/04/30 08:47:17;;;;;;;12.48;6.30;;;12.20;99.90;;;;;;5046202;28;20087;-75
2021/04/30 08:49:42;;;;;;;12.30;6.72;;;12.20;99.90;;;;;;5045983;28;20017;-74
2021/04/30 08:52:12;;;;;;;11.30;6.95;;;12.20;99.90;;;;;;5045891;28;20072;-75
2021/04/30 08:54:38;;;;;;;10.75;6.05;;;12.20;99.90;;;;;;5045935;28;20048;-77
2021/04/30 08:57:07;;;;;;;11.00;6.38;;;12.20;99.90;;;;;;5045630;28;20022;-75
2021/04/30 08:59:33;;;;;;;11.98;6.68;;;12.30;99.90;;;;;;5053971;28;20033;-74
2021/04/30 09:02:02;;;;;;;13.18;7.28;;;12.30;99.90;;;;;;5054079;28;20055;-74
2021/04/30 09:04:31;;;;;;;12.88;6.05;;;12.30;99.90;;;;;;5046539;28;20038;-75
2021/04/30 09:07:16;;;;;;;11.25;5.70;;;12.30;99.90;;;;;;5043017;28;20036;-73
2021/04/30 09:10:00;;;;;;;10.38;5.00;;;12.40;99.90;;;;;;5044135;28;20070;-74
2021/04/30 09:12:27;;;;;;;17.85;6.97;;;12.60;99.90;;;;;;5045015;28;20064;-74
2021/04/30 09:14:53;;;;;;;10.80;5.95;;;13.10;99.90;;;;;;5045488;28;20029;-74
2021/04/30 09:17:20;;;;;;;14.63;5.72;;;13.30;99.90;;;;;;5047642;28;20040;-74
2021/04/30 09:19:48;;;;;;;9.73;6.32;;;13.80;99.90;;;;;;5054256;28;20442;-75
2021/04/30 09:22:17;;;;;;;10.48;5.03;;;14.20;99.90;;;;;;5059872;28;20405;-74
2021/04/30 09:24:48;;;;;;;10.55;5.43;;;14.60;99.90;;;;;;5046419;28;20471;-76
2021/04/30 09:27:26;;;;;;;9.35;5.28;;;14.70;99.90;;;;;;5044526;28;20028;-74
2021/04/30 09:29:52;;;;;;;11.90;5.22;;;14.70;99.90;;;;;;5042813;28;20022;-75
2021/04/30 09:32:18;;;;;;;8.07;4.47;;;14.60;99.90;;;;;;5044669;28;20049;-75
2021/04/30 09:34:44;;;;;;;11.10;5.80;;;14.40;99.90;;;;;;5045052;28;20281;-74
2021/04/30 09:37:16;;;;;;;8.60;5.50;;;14.30;99.90;;;;;;5045212;28;20493;-74
2021/04/30 09:40:03;;;;;;;13.60;5.15;;;14.10;99.90;;;;;;5043527;28;20538;-74
2021/04/30 09:42:36;;;;;;;9.60;5.47;;;13.90;99.90;;;;;;5044796;28;20029;-75
2021/04/30 09:45:08;;;;;;;9.90;5.45;;;13.70;99.90;;;;;;5044939;28;20060;-76
2021/04/30 09:47:36;;;;;;;8.98;4.97;;;13.60;99.90;;;;;;5043424;28;20033;-75
2021/04/30 09:50:05;;;;;;;9.95;5.25;;;13.50;99.90;;;;;;5044894;28;20029;-75
2021/04/30 09:52:31;;;;;;;13.88;5.75;;;13.50;99.90;;;;;;5044370;28;20042;-73
2021/04/30 09:55:02;;;;;;;8.98;5.53;;;13.50;99.90;;;;;;5044754;28;20072;-74
2021/04/30 09:57:32;;;;;;;11.48;5.82;;;13.50;99.90;;;;;;5044751;28;20064;-74
2021/04/30 10:00:12;;;;;;;9.40;5.43;;;13.80;99.90;;;;;;5044166;28;20033;-76
2021/04/30 10:02:38;;;;;;;8.48;5.22;;;14.10;99.90;;;;;;5044764;28;20021;-76
2021/04/30 10:05:17;;;;;;;9.05;5.20;;;14.10;99.90;;;;;;5044614;28;20111;-75
2021/04/30 10:07:43;;;;;;;8.07;4.18;;;13.90;99.90;;;;;;5044477;28;20050;-75
2021/04/30 10:10:12;;;;;;;9.35;4.82;;;13.90;99.90;;;;;;5044508;28;20040;-74
2021/04/30 10:12:44;;;;;;;12.38;5.57;;;13.80;99.90;;;;;;5043975;28;20389;-74
2021/04/30 10:15:12;;;;;;;6.70;4.57;;;13.70;99.90;;;;;;5044638;28;20034;-75
2021/04/30 10:17:38;;;;;;;7.53;4.40;;;13.70;99.90;;;;;;5044706;28;20029;-75
2021/04/30 10:20:07;;;;;;;6.93;4.10;;;13.60;99.90;;;;;;5042515;28;20029;-75
2021/04/30 10:22:35;;;;;;;6.03;3.75;;;13.50;99.90;;;;;;5049749;28;20119;-76
2021/04/30 10:25:03;;;;;;;4.88;3.63;;;13.50;99.90;;;;;;5061584;28;20085;-75
2021/04/30 10:27:35;;;;;;;6.28;3.60;;;13.60;99.90;;;;;;5060663;28;20048;-75
2021/04/30 10:30:07;;;;;;;6.85;3.63;;;13.60;99.90;;;;;;5062403;28;20092;-74
2021/04/30 10:32:46;;;;;;;4.38;2.70;;;13.60;99.90;;;;;;5063359;28;20072;-76
2021/04/30 10:35:14;;;;;;;8.55;4.10;;;13.70;99.90;;;;;;5062053;28;20079;-76
2021/04/30 10:37:42;;;;;;;7.10;3.65;;;13.70;99.90;;;;;;5063439;28;20096;-76
2021/04/30 10:40:12;;;;;;;6.65;3.92;;;13.60;99.90;;;;;;5061878;28;20096;-74
2021/04/30 10:42:43;;;;;;;6.13;3.92;;;13.60;99.90;;;;;;5061813;28;20036;-75
2021/04/30 10:45:14;;;;;;;5.03;3.42;;;13.60;99.90;;;;;;5063690;28;20500;-75
2021/04/30 10:47:40;;;;;;;8.63;3.95;;;13.50;99.90;;;;;;5059180;28;20044;-76
2021/04/30 10:50:10;;;;;;;6.07;3.63;;;13.60;99.90;;;;;;5048522;28;20466;-76
2021/04/30 10:52:35;;;;;;;7.75;4.25;;;13.60;99.90;;;;;;5057611;28;20386;-76
2021/04/30 10:55:10;;;;;;;6.40;3.38;;;13.80;99.90;;;;;;5062025;28;20031;-77
2021/04/30 10:57:54;;;;;;;4.60;2.60;;;13.90;99.90;;;;;;5061771;28;20147;-77
2021/04/30 11:00:28;;;;;;;5.07;3.08;;;14.10;99.90;;;;;;5064338;28;20029;-78
2021/04/30 11:03:26;;;;;;;7.97;3.90;;;14.20;99.90;;;;;;5062528;28;20033;-76
2021/04/30 11:06:03;;;;;;;5.18;3.30;;;14.30;99.90;;;;;;5065780;28;20041;-76
2021/04/30 11:08:51;;;;;;;4.78;3.10;;;14.40;99.90;;;;;;5067228;28;20032;-77
2021/04/30 11:11:41;;;;;;;5.82;3.45;;;14.60;99.90;;;;;;5066076;28;20381;-79
2021/04/30 11:14:24;;;;;;;7.05;2.97;;;14.80;99.90;;;;;;5066027;28;20055;-78
2021/04/30 11:16:53;;;;;;;8.00;2.85;;;14.80;99.90;;;;;;5065494;28;20715;-77
2021/04/30 11:19:20;;;;;;;4.65;2.20;;;14.90;99.90;;;;;;5065834;28;20033;-77
2021/04/30 11:21:51;;;;;;;4.85;2.80;;;14.90;99.90;;;;;;5065918;28;20033;-82
2021/04/30 11:24:32;;;;;;;5.85;3.05;;;14.90;99.90;;;;;;5066795;28;20087;-79
2021/04/30 11:27:17;;;;;;;4.75;3.30;;;14.80;99.90;;;;;;5067352;28;20045;-80
2021/04/30 11:29:43;;;;;;;5.65;3.55;;;14.70;99.90;;;;;;5067466;28;20033;-81
2021/04/30 11:32:25;;;;;;;5.88;3.38;;;14.70;99.90;;;;;;5064910;28;20033;-81
2021/04/30 11:34:56;;;;;;;4.35;2.83;;;14.60;99.90;;;;;;5066437;28;20041;-79
2021/04/30 11:37:23;;;;;;;4.63;2.92;;;14.50;99.90;;;;;;5065652;28;20028;-80
2021/04/30 11:39:53;;;;;;;7.13;3.70;;;14.40;99.90;;;;;;5051733;28;20060;-81
2021/04/30 11:42:19;;;;;;;4.50;2.83;;;14.30;99.90;;;;;;5055191;28;20029;-81
2021/04/30 11:44:45;;;;;;;4.85;3.00;;;14.30;99.90;;;;;;5057398;28;20147;-81
2021/04/30 11:47:15;;;;;;;5.95;3.30;;;14.20;99.90;;;;;;5065857;28;20056;-81
2021/04/30 11:49:42;;;;;;;6.30;3.50;;;14.20;99.90;;;;;;5067491;28;20028;-81
2021/04/30 11:52:12;;;;;;;3.55;2.15;;;14.20;99.90;;;;;;5065483;28;20052;-82
2021/04/30 11:54:39;;;;;;;6.75;2.35;;;14.10;99.90;;;;;;5065762;28;20029;-82
2021/04/30 11:57:07;;;;;;;5.20;2.55;;;14.00;99.90;;;;;;5065907;28;20589;-81
2021/04/30 11:59:34;;;;;;;3.72;2.53;;;14.20;99.90;;;;;;5065299;28;20033;-83
2021/04/30 12:02:08;;;;;;;4.05;2.17;;;14.20;99.90;;;;;;5065408;28;20025;-81
2021/04/30 12:04:41;;;;;;;4.55;2.63;;;14.10;99.90;;;;;;5065075;28;20029;-77
2021/04/30 12:07:09;;;;;;;5.38;2.60;;;14.30;99.90;;;;;;5065398;28;20033;-83
2021/04/30 12:09:35;;;;;;;4.70;2.63;;;14.30;99.90;;;;;;5065838;28;20036;-81
2021/04/30 12:12:21;;;;;;;4.35;2.65;;;14.30;99.90;;;;;;5066976;28;20089;-82
2021/04/30 12:14:50;;;;;;;4.90;2.55;;;14.40;99.90;;;;;;5065459;28;20027;-81
2021/04/30 12:17:30;;;;;;;6.68;2.70;;;14.60;99.90;;;;;;5065657;28;20529;-80
2021/04/30 12:19:57;;;;;;;3.88;2.28;;;14.70;99.90;;;;;;5065149;28;20035;-82
2021/04/30 12:22:24;;;;;;;6.75;2.72;;;15.00;99.90;;;;;;5065593;28;20039;-82
2021/04/30 12:24:50;;;;;;;3.45;2.47;;;15.20;99.90;;;;;;5065332;28;20088;-82
2021/04/30 12:27:29;;;;;;;5.05;2.58;;;15.40;99.90;;;;;;5064751;28;20024;-79
2021/04/30 12:29:56;;;;;;;4.75;2.88;;;15.50;99.90;;;;;;5064841;28;20393;-80
2021/04/30 12:32:26;;;;;;;5.22;2.85;;;15.50;99.90;;;;;;5065412;28;20058;-80
2021/04/30 12:34:53;;;;;;;4.32;2.53;;;15.60;99.90;;;;;;5066148;28;20584;-82
2021/04/30 12:37:20;;;;;;;3.83;2.50;;;15.60;99.90;;;;;;5066225;28;20025;-80
2021/04/30 12:39:48;;;;;;;3.42;2.33;;;15.50;99.90;;;;;;5064627;28;20025;-79
2021/04/30 12:42:14;;;;;;;5.65;3.03;;;15.50;99.90;;;;;;5062135;28;20045;-82
2021/04/30 12:44:59;;;;;;;5.10;2.90;;;15.60;99.90;;;;;;5056973;28;20025;-81